createdAt,value
2018-09-19T00:02:02.855Z,63.20
2018-09-19T00:04:31.108Z,63.28
2018-09-19T00:06:59.213Z,63.44
2018-09-19T00:09:27.239Z,63.12
2018-09-19T00:11:55.310Z,64.02
2018-09-19T00:14:23.355Z,64.46
2018-09-19T00:16:51.393Z,64.20
2018-09-19T00:19:19.475Z,63.54
2018-09-19T00:21:47.570Z,64.76
2018-09-19T00:24:16.175Z,63.78
2018-09-19T00:26:44.215Z,64.52
2018-09-19T00:29:12.271Z,64.68
2018-09-19T00:31:40.323Z,64.03
2018-09-19T00:34:08.561Z,64.08
2018-09-19T00:36:36.572Z,64.76
2018-09-19T00:39:06.996Z,65.02
2018-09-19T00:41:35.065Z,64.14
2018-09-19T00:44:03.132Z,64.38
2018-09-19T00:46:31.163Z,64.55
2018-09-19T00:48:59.248Z,64.72
2018-09-19T00:51:27.296Z,65.15
2018-09-19T00:53:55.357Z,65.03
2018-09-19T00:56:23.424Z,64.29
2018-09-19T00:58:51.507Z,64.68
2018-09-19T01:01:19.538Z,64.64
2018-09-19T01:03:47.613Z,64.60
2018-09-19T01:06:15.738Z,64.72
2018-09-19T01:08:43.782Z,64.47
2018-09-19T01:11:11.858Z,64.96
2018-09-19T01:13:40.082Z,64.95
2018-09-19T01:16:08.096Z,64.43
2018-09-19T01:18:36.263Z,65.27
2018-09-19T01:21:04.557Z,64.29
2018-09-19T01:23:32.612Z,65.07
2018-09-19T01:26:00.659Z,65.38
2018-09-19T01:28:28.707Z,65.06
2018-09-19T01:30:56.748Z,64.75
2018-09-19T01:33:24.795Z,65.59
2018-09-19T01:35:53.020Z,65.78
2018-09-19T01:38:21.074Z,65.13
2018-09-19T01:40:49.251Z,65.40
2018-09-19T01:43:17.384Z,65.44
2018-09-19T01:45:45.512Z,64.92
2018-09-19T01:48:13.581Z,64.81
2018-09-19T01:50:41.656Z,64.65
2018-09-19T01:53:09.715Z,65.44
2018-09-19T01:55:37.752Z,65.55
2018-09-19T01:58:05.841Z,65.66
2018-09-19T02:00:33.913Z,65.50
2018-09-19T02:03:02.020Z,66.00
2018-09-19T02:05:30.097Z,65.16
2018-09-19T02:07:58.168Z,65.32
2018-09-19T02:10:26.231Z,65.56
2018-09-19T02:12:54.300Z,65.02
2018-09-19T02:15:28.641Z,65.14
2018-09-19T02:17:56.840Z,65.17
2018-09-19T02:20:24.956Z,65.22
2018-09-19T02:22:53.043Z,65.44
2018-09-19T02:25:21.047Z,65.36
2018-09-19T02:27:49.459Z,65.75
2018-09-19T02:30:17.532Z,66.45
2018-09-19T02:32:45.575Z,66.28
2018-09-19T02:35:13.698Z,65.70
2018-09-19T02:37:41.717Z,65.72
2018-09-19T02:40:09.800Z,66.41
2018-09-19T02:42:37.807Z,65.83
2018-09-19T02:45:05.883Z,65.73
2018-09-19T02:47:34.054Z,65.83
2018-09-19T02:50:02.090Z,65.95
2018-09-19T02:52:30.180Z,65.81
2018-09-19T02:54:58.220Z,66.09
2018-09-19T02:57:26.314Z,65.67
2018-09-19T02:59:54.410Z,66.46
2018-09-19T03:02:22.392Z,65.74
2018-09-19T03:04:50.433Z,65.58
2018-09-19T03:07:18.472Z,65.83
2018-09-19T03:09:46.677Z,65.90
2018-09-19T03:12:14.732Z,66.38
2018-09-19T03:14:42.815Z,66.59
2018-09-19T03:17:10.910Z,66.26
2018-09-19T03:19:39.161Z,65.61
2018-09-19T03:22:07.228Z,66.17
2018-09-19T03:24:35.280Z,66.22
2018-09-19T03:27:03.338Z,66.53
2018-09-19T03:29:31.598Z,67.24
2018-09-19T03:31:59.591Z,66.41
2018-09-19T03:34:27.665Z,66.97
2018-09-19T03:36:56.052Z,66.64
2018-09-19T03:39:24.139Z,66.49
2018-09-19T03:41:52.184Z,67.10
2018-09-19T03:44:20.228Z,66.88
2018-09-19T03:46:48.266Z,66.94
2018-09-19T03:49:16.909Z,66.87
2018-09-19T03:51:44.969Z,67.49
2018-09-19T03:54:13.004Z,67.78
2018-09-19T03:56:41.045Z,67.18
2018-09-19T03:59:09.331Z,67.61
2018-09-19T04:01:37.368Z,67.98
2018-09-19T04:04:05.545Z,67.41
2018-09-19T04:06:33.573Z,67.99
2018-09-19T04:09:01.632Z,67.51
2018-09-19T04:11:29.679Z,67.79
2018-09-19T04:13:57.732Z,67.99
2018-09-19T04:16:25.771Z,68.62
2018-09-19T04:18:54.178Z,68.25
2018-09-19T04:21:22.224Z,68.64
2018-09-19T04:23:50.270Z,68.16
2018-09-19T04:26:18.363Z,67.96
2018-09-19T04:28:46.409Z,68.48
2018-09-19T04:31:14.544Z,68.48
2018-09-19T04:33:42.864Z,68.51
2018-09-19T04:36:11.022Z,68.36
2018-09-19T04:38:39.071Z,69.16
2018-09-19T04:41:07.155Z,69.13
2018-09-19T04:43:35.208Z,68.22
2018-09-19T04:46:03.266Z,68.59
2018-09-19T04:48:31.359Z,68.89
2018-09-19T04:50:59.411Z,68.75
2018-09-19T04:53:27.451Z,68.74
2018-09-19T04:55:55.576Z,69.27
2018-09-19T04:58:23.813Z,68.58
2018-09-19T05:00:51.904Z,68.64
2018-09-19T05:03:19.973Z,68.83
2018-09-19T05:05:48.096Z,68.94
2018-09-19T05:08:16.097Z,68.95
2018-09-19T05:10:44.136Z,69.53
2018-09-19T05:13:12.381Z,69.47
2018-09-19T05:15:40.428Z,69.60
2018-09-19T05:18:08.480Z,69.75
2018-09-19T05:20:36.528Z,70.45
2018-09-19T05:23:05.024Z,69.80
2018-09-19T05:25:33.331Z,69.78
2018-09-19T05:28:01.381Z,69.98
2018-09-19T05:30:29.560Z,69.80
2018-09-19T05:32:57.780Z,69.42
2018-09-19T05:35:25.948Z,69.64
2018-09-19T05:37:54.325Z,69.67
2018-09-19T05:40:22.378Z,70.87
2018-09-19T05:42:50.442Z,70.35
2018-09-19T05:45:18.502Z,69.85
2018-09-19T05:47:46.936Z,69.90
2018-09-19T05:50:14.999Z,69.76
2018-09-19T05:52:43.133Z,70.12
2018-09-19T05:55:11.228Z,70.42
2018-09-19T05:57:39.279Z,70.55
2018-09-19T06:00:07.333Z,70.80
2018-09-19T06:02:35.371Z,71.46
2018-09-19T06:05:03.482Z,70.90
2018-09-19T06:07:31.783Z,70.44
2018-09-19T06:09:59.847Z,70.49
2018-09-19T06:12:28.020Z,70.71
2018-09-19T06:14:56.101Z,71.38
2018-09-19T06:17:24.176Z,71.54
2018-09-19T06:19:52.271Z,71.60
2018-09-19T06:22:22.454Z,71.66
2018-09-19T06:25:13.786Z,71.59
2018-09-19T06:27:41.844Z,71.28
2018-09-19T06:30:09.877Z,71.34
2018-09-19T06:32:37.964Z,71.67
2018-09-19T06:35:06.108Z,70.40
2018-09-19T06:37:34.134Z,71.27
2018-09-19T06:40:02.391Z,70.48
2018-09-19T06:42:30.347Z,70.89
2018-09-19T06:44:58.390Z,71.18
2018-09-19T06:47:26.802Z,70.70
2018-09-19T06:50:01.422Z,70.37
2018-09-19T06:52:29.640Z,70.54
2018-09-19T06:55:13.942Z,70.20
2018-09-19T06:58:01.917Z,70.13
2018-09-19T07:00:30.083Z,70.08
2018-09-19T07:02:58.117Z,69.88
2018-09-19T07:05:26.143Z,70.26
2018-09-19T07:07:54.173Z,70.36
2018-09-19T07:10:23.467Z,70.26
2018-09-19T07:12:51.670Z,69.57
2018-09-19T07:15:19.741Z,69.74
2018-09-19T07:17:47.769Z,69.55
2018-09-19T07:20:22.527Z,68.96
2018-09-19T07:22:51.384Z,68.66
2018-09-19T07:25:35.938Z,68.38
2018-09-19T07:28:11.227Z,68.55
2018-09-19T07:30:54.007Z,68.11
2018-09-19T07:33:21.996Z,68.17
2018-09-19T07:35:50.065Z,67.55
2018-09-19T07:38:18.145Z,67.36
2018-09-19T07:40:46.168Z,66.84
2018-09-19T07:43:14.283Z,67.03
2018-09-19T07:45:57.584Z,66.13
2018-09-19T07:48:25.785Z,65.75
2018-09-19T07:50:53.809Z,65.74
2018-09-19T07:53:32.887Z,65.18
2018-09-19T07:56:06.844Z,64.17
2018-09-19T07:58:34.868Z,63.35
2018-09-19T08:01:25.333Z,62.99
2018-09-19T08:04:10.086Z,62.26
2018-09-19T08:06:38.141Z,62.02
2018-09-19T08:09:07.304Z,61.81
2018-09-19T08:11:35.332Z,60.23
2018-09-19T08:14:03.372Z,60.90
2018-09-19T08:16:31.437Z,60.14
2018-09-19T08:18:59.472Z,60.36
2018-09-19T08:21:27.517Z,59.77
2018-09-19T08:23:55.559Z,59.37
2018-09-19T08:26:23.684Z,59.20
2018-09-19T08:28:51.751Z,60.13
2018-09-19T08:31:19.761Z,59.79
2018-09-19T08:33:47.804Z,59.95
2018-09-19T08:36:16.000Z,58.36
2018-09-19T08:38:44.357Z,58.58
2018-09-19T08:41:12.444Z,57.10
2018-09-19T08:43:40.561Z,57.64
2018-09-19T08:46:08.748Z,57.09
2018-09-19T08:48:36.816Z,57.57
2018-09-19T08:51:05.055Z,56.55
2018-09-19T08:53:33.375Z,57.34
2018-09-19T08:56:01.392Z,57.02
2018-09-19T08:58:29.816Z,56.47
2018-09-19T09:00:57.849Z,56.21
2018-09-19T09:03:26.013Z,55.65
2018-09-19T09:05:54.081Z,53.97
2018-09-19T09:08:22.149Z,53.46
2018-09-19T09:10:50.218Z,53.25
2018-09-19T09:13:18.278Z,53.44
2018-09-19T09:15:46.308Z,53.16
2018-09-19T09:18:14.331Z,52.41
2018-09-19T09:20:42.382Z,50.85
2018-09-19T09:23:10.421Z,50.96
2018-09-19T09:25:38.626Z,50.33
2018-09-19T09:28:06.815Z,50.37
2018-09-19T09:30:35.164Z,51.10
2018-09-19T09:33:03.507Z,49.96
2018-09-19T09:35:31.545Z,49.74
2018-09-19T09:37:59.564Z,50.02
2018-09-19T09:40:27.717Z,48.99
2018-09-19T09:42:55.669Z,48.03
2018-09-19T09:45:23.712Z,47.73
2018-09-19T09:47:51.749Z,47.84
2018-09-19T09:50:19.857Z,48.85
2018-09-19T09:52:48.042Z,48.21
2018-09-19T09:55:16.105Z,47.36
2018-09-19T09:57:44.179Z,47.73
2018-09-19T10:00:12.214Z,48.56
2018-09-19T10:02:40.256Z,48.45
2018-09-19T10:05:08.284Z,48.14
2018-09-19T10:07:36.321Z,49.77
2018-09-19T10:10:04.363Z,49.05
2018-09-19T10:12:32.417Z,49.87
2018-09-19T10:15:00.497Z,49.81
2018-09-19T10:17:28.564Z,50.10
2018-09-19T10:19:56.783Z,50.25
2018-09-19T10:22:24.825Z,50.68
2018-09-19T10:24:52.934Z,51.01
2018-09-19T10:27:20.968Z,50.97
2018-09-19T10:29:49.105Z,49.88
2018-09-19T10:32:17.357Z,50.23
2018-09-19T10:34:45.418Z,50.80
2018-09-19T10:37:13.460Z,50.93
2018-09-19T10:39:41.520Z,49.76
2018-09-19T10:42:09.662Z,49.09
2018-09-19T10:44:37.833Z,49.55
2018-09-19T10:47:05.997Z,49.81
2018-09-19T10:49:34.041Z,49.55
2018-09-19T10:52:02.022Z,48.12
2018-09-19T10:54:30.198Z,48.51
2018-09-19T10:56:58.484Z,47.23
2018-09-19T10:59:26.510Z,47.35
2018-09-19T11:01:54.589Z,48.09
2018-09-19T11:04:22.649Z,48.28
2018-09-19T11:06:50.828Z,47.26
2018-09-19T11:09:18.883Z,47.97
2018-09-19T11:11:46.914Z,48.38
2018-09-19T11:14:14.942Z,49.06
2018-09-19T11:16:42.990Z,49.26
2018-09-19T11:19:11.037Z,49.00
2018-09-19T11:21:39.081Z,47.62
2018-09-19T11:24:07.876Z,48.60
2018-09-19T11:26:35.925Z,47.80
2018-09-19T11:29:04.844Z,48.39
2018-09-19T11:31:32.881Z,47.61
2018-09-19T11:34:00.969Z,47.21
2018-09-19T11:36:28.999Z,47.84
2018-09-19T11:38:57.059Z,46.71
2018-09-19T11:41:25.080Z,47.89
2018-09-19T11:43:53.116Z,46.68
2018-09-19T11:46:21.180Z,45.61
2018-09-19T11:48:49.301Z,45.55
2018-09-19T11:51:17.273Z,45.82
2018-09-19T11:53:45.320Z,45.20
2018-09-19T11:56:13.363Z,43.62
2018-09-19T11:58:41.389Z,44.08
2018-09-19T12:01:09.451Z,45.89
2018-09-19T12:03:37.552Z,45.38
2018-09-19T12:06:05.595Z,45.54
2018-09-19T12:08:33.656Z,45.36
2018-09-19T12:11:01.697Z,45.31
2018-09-19T12:13:29.727Z,44.45
2018-09-19T12:15:57.792Z,43.31
2018-09-19T12:18:25.961Z,43.10
2018-09-19T12:20:54.012Z,43.44
2018-09-19T12:23:22.052Z,44.18
2018-09-19T12:25:50.120Z,43.42
2018-09-19T12:28:18.226Z,42.96
2018-09-19T12:30:46.265Z,42.62
2018-09-19T12:33:14.353Z,42.05
2018-09-19T12:35:42.364Z,42.63
2018-09-19T12:38:10.425Z,42.73
2018-09-19T12:40:38.514Z,42.73
2018-09-19T12:43:06.577Z,41.86
2018-09-19T12:45:34.688Z,41.00
2018-09-19T12:48:02.757Z,41.88
2018-09-19T12:50:30.834Z,41.41
2018-09-19T12:52:58.877Z,41.66
2018-09-19T12:55:26.920Z,41.35
2018-09-19T12:57:54.949Z,41.65
2018-09-19T13:00:22.994Z,41.50
2018-09-19T13:02:51.116Z,41.84
2018-09-19T13:05:19.262Z,40.12
2018-09-19T13:07:47.286Z,40.81
2018-09-19T13:10:15.334Z,40.85
2018-09-19T13:12:43.389Z,40.95
2018-09-19T13:15:11.415Z,39.73
2018-09-19T13:17:39.476Z,40.28
2018-09-19T13:20:07.572Z,40.25
2018-09-19T13:22:35.633Z,40.60
2018-09-19T13:25:03.893Z,40.90
2018-09-19T13:27:31.937Z,41.43
2018-09-19T13:30:00.049Z,39.88
2018-09-19T13:32:28.104Z,40.09
2018-09-19T13:34:56.180Z,40.71
2018-09-19T13:37:24.187Z,41.24
2018-09-19T13:39:52.256Z,39.69
2018-09-19T13:42:20.292Z,39.61
2018-09-19T13:44:48.334Z,40.07
2018-09-19T13:47:16.433Z,39.84
2018-09-19T13:49:47.985Z,39.91
2018-09-19T13:52:16.029Z,40.51
2018-09-19T13:54:44.068Z,40.89
2018-09-19T13:57:18.692Z,40.33
2018-09-19T13:59:46.741Z,40.74
2018-09-19T14:02:15.152Z,41.43
2018-09-19T14:04:43.177Z,40.87
2018-09-19T14:07:11.237Z,41.06
2018-09-19T14:09:39.312Z,40.22
2018-09-19T14:12:07.625Z,39.87
2018-09-19T14:14:35.628Z,39.91
2018-09-19T14:17:04.069Z,39.53
2018-09-19T14:19:32.113Z,40.51
2018-09-19T14:22:00.158Z,39.63
2018-09-19T14:24:28.212Z,41.37
2018-09-19T14:26:56.263Z,41.41
2018-09-19T14:29:24.321Z,41.22
2018-09-19T14:31:52.387Z,40.57
2018-09-19T14:34:20.488Z,41.04
2018-09-19T14:36:48.624Z,40.75
2018-09-19T14:39:16.657Z,40.17
2018-09-19T14:41:44.705Z,40.90
2018-09-19T14:44:12.738Z,41.38
2018-09-19T14:46:40.790Z,40.12
2018-09-19T14:49:08.817Z,41.23
2018-09-19T14:51:36.847Z,41.41
2018-09-19T14:54:05.070Z,41.42
2018-09-19T14:56:33.080Z,40.15
2018-09-19T14:59:01.147Z,41.12
2018-09-19T15:01:29.181Z,41.26
2018-09-19T15:03:57.213Z,40.20
2018-09-19T15:06:25.268Z,39.28
2018-09-19T15:08:53.325Z,39.63
2018-09-19T15:11:21.383Z,40.58
2018-09-19T15:13:49.448Z,39.47
2018-09-19T15:16:17.491Z,40.52
2018-09-19T15:18:45.561Z,39.33
2018-09-19T15:21:13.602Z,40.55
2018-09-19T15:23:41.653Z,39.45
2018-09-19T15:26:09.702Z,39.77
2018-09-19T15:28:37.793Z,40.98
2018-09-19T15:31:05.784Z,40.65
2018-09-19T15:33:33.900Z,41.20
2018-09-19T15:36:01.963Z,41.00
2018-09-19T15:38:30.010Z,39.55
2018-09-19T15:40:58.033Z,39.87
2018-09-19T15:43:26.109Z,40.49
2018-09-19T15:45:54.175Z,40.19
2018-09-19T15:48:22.413Z,39.85
2018-09-19T15:50:50.475Z,40.11
2018-09-19T15:53:18.518Z,40.37
2018-09-19T15:55:46.561Z,40.57
2018-09-19T15:58:14.595Z,39.93
2018-09-19T16:00:42.636Z,40.33
2018-09-19T16:03:10.734Z,39.67
2018-09-19T16:05:38.822Z,39.72
2018-09-19T16:08:06.843Z,40.70
2018-09-19T16:10:34.893Z,40.13
2018-09-19T16:13:02.924Z,39.50
2018-09-19T16:15:30.962Z,40.45
2018-09-19T16:17:59.249Z,40.93
2018-09-19T16:20:27.297Z,40.05
2018-09-19T16:22:55.774Z,40.39
2018-09-19T16:25:23.806Z,39.85
2018-09-19T16:27:51.829Z,41.01
2018-09-19T16:30:19.920Z,39.32
2018-09-19T16:32:47.965Z,40.05
2018-09-19T16:35:16.036Z,40.50
2018-09-19T16:37:44.069Z,39.72
2018-09-19T16:40:12.137Z,40.27
2018-09-19T16:42:40.198Z,40.17
2018-09-19T16:45:08.248Z,41.11
2018-09-19T16:47:36.295Z,40.76
2018-09-19T16:50:04.807Z,41.68
2018-09-19T16:52:32.897Z,40.70
2018-09-19T16:55:01.035Z,41.62
2018-09-19T16:57:29.093Z,41.72
2018-09-19T16:59:57.175Z,41.45
2018-09-19T17:02:25.232Z,41.66
2018-09-19T17:04:53.297Z,42.44
2018-09-19T17:07:21.383Z,41.92
2018-09-19T17:09:49.415Z,42.57
2018-09-19T17:12:17.471Z,42.25
2018-09-19T17:14:45.515Z,43.02
2018-09-19T17:17:13.575Z,42.72
2018-09-19T17:19:41.621Z,43.33
2018-09-19T17:22:09.765Z,43.43
2018-09-19T17:24:37.810Z,42.92
2018-09-19T17:27:05.844Z,43.65
2018-09-19T17:29:33.875Z,43.39
2018-09-19T17:32:01.921Z,43.49
2018-09-19T17:34:30.005Z,44.13
2018-09-19T17:36:58.046Z,44.08
2018-09-19T17:39:26.098Z,44.32
2018-09-19T17:41:54.150Z,45.20
2018-09-19T17:44:22.170Z,44.76
2018-09-19T17:46:50.212Z,44.82
2018-09-19T17:49:18.253Z,44.98
2018-09-19T17:51:46.317Z,44.97
2018-09-19T17:54:14.372Z,46.04
2018-09-19T17:56:42.401Z,45.54
2018-09-19T17:59:10.448Z,46.43
2018-09-19T18:01:38.568Z,45.61
2018-09-19T18:04:06.882Z,45.80
2018-09-19T18:06:34.996Z,46.31
2018-09-19T18:09:03.280Z,46.67
2018-09-19T18:11:31.316Z,46.63
2018-09-19T18:13:59.409Z,46.85
2018-09-19T18:16:27.436Z,46.90
2018-09-19T18:18:55.504Z,47.10
2018-09-19T18:21:23.570Z,46.94
2018-09-19T18:23:52.173Z,46.96
2018-09-19T18:26:20.232Z,47.52
2018-09-19T18:28:48.284Z,47.51
2018-09-19T18:31:16.363Z,47.56
2018-09-19T18:33:44.404Z,47.00
2018-09-19T18:36:12.461Z,47.91
2018-09-19T18:38:40.553Z,48.27
2018-09-19T18:41:08.609Z,47.96
2018-09-19T18:43:36.664Z,47.39
2018-09-19T18:46:04.928Z,47.28
2018-09-19T18:48:32.970Z,48.24
2018-09-19T18:51:01.428Z,48.40
2018-09-19T18:53:29.496Z,48.45
2018-09-19T18:55:57.535Z,48.59
2018-09-19T18:58:25.577Z,48.07
2018-09-19T19:00:53.622Z,48.60
2018-09-19T19:03:21.653Z,48.83
2018-09-19T19:05:49.672Z,48.62
2018-09-19T19:08:17.720Z,48.66
2018-09-19T19:10:45.773Z,48.95
2018-09-19T19:13:13.836Z,49.20
2018-09-19T19:15:42.319Z,49.40
2018-09-19T19:18:10.359Z,49.37
2018-09-19T19:20:38.576Z,49.74
2018-09-19T19:23:06.864Z,48.97
2018-09-19T19:25:34.956Z,49.99
2018-09-19T19:28:03.005Z,49.52
2018-09-19T19:30:31.373Z,51.10
2018-09-19T19:32:59.273Z,50.28
2018-09-19T19:35:27.291Z,50.02
2018-09-19T19:37:55.349Z,49.60
2018-09-19T19:40:23.336Z,50.34
2018-09-19T19:42:51.416Z,50.42
2018-09-19T19:45:19.429Z,50.47
2018-09-19T19:47:47.445Z,50.80
2018-09-19T19:50:15.543Z,50.22
2018-09-19T19:52:43.572Z,50.55
2018-09-19T19:55:11.632Z,50.87
2018-09-19T19:57:39.676Z,50.39
2018-09-19T20:00:07.700Z,50.67
2018-09-19T20:02:35.813Z,51.35
2018-09-19T20:05:04.932Z,50.17
2018-09-19T20:07:32.956Z,50.41
2018-09-19T20:10:00.998Z,50.99
2018-09-19T20:12:29.073Z,51.28
2018-09-19T20:14:57.050Z,50.80
2018-09-19T20:17:25.122Z,51.56
2018-09-19T20:19:53.298Z,50.74
2018-09-19T20:22:21.317Z,51.22
2018-09-19T20:24:49.364Z,52.15
2018-09-19T20:27:17.437Z,51.16
2018-09-19T20:29:45.463Z,51.58
2018-09-19T20:32:13.503Z,52.01
2018-09-19T20:34:41.512Z,51.26
2018-09-19T20:37:09.547Z,52.16
2018-09-19T20:39:37.588Z,51.49
2018-09-19T20:42:05.633Z,51.43
2018-09-19T20:44:33.700Z,51.44
2018-09-19T20:47:01.778Z,52.02
2018-09-19T20:49:29.745Z,51.96
2018-09-19T20:51:57.771Z,51.95
2018-09-19T20:54:25.787Z,52.95
2018-09-19T20:56:53.789Z,52.83
2018-09-19T20:59:21.824Z,53.20
2018-09-19T21:01:49.872Z,52.75
2018-09-19T21:04:17.939Z,52.40
2018-09-19T21:06:45.941Z,52.52
2018-09-19T21:09:13.972Z,52.79
2018-09-19T21:11:42.013Z,52.86
2018-09-19T21:14:10.043Z,53.20
2018-09-19T21:16:38.065Z,53.60
2018-09-19T21:19:06.089Z,53.01
2018-09-19T21:21:34.121Z,53.86
2018-09-19T21:24:02.150Z,53.32
2018-09-19T21:26:30.170Z,53.73
2018-09-19T21:28:58.193Z,54.01
2018-09-19T21:31:26.239Z,54.07
2018-09-19T21:33:54.383Z,53.55
2018-09-19T21:36:22.501Z,54.23
2018-09-19T21:38:50.611Z,53.68
2018-09-19T21:41:18.684Z,53.73
2018-09-19T21:43:46.735Z,54.25
2018-09-19T21:46:15.067Z,54.18
2018-09-19T21:48:43.117Z,55.14
2018-09-19T21:51:11.172Z,55.00
2018-09-19T21:53:39.245Z,54.87
2018-09-19T21:56:07.329Z,54.68
2018-09-19T21:58:35.463Z,54.62
2018-09-19T22:01:10.365Z,54.64
2018-09-19T22:03:40.073Z,54.93
2018-09-19T22:06:08.413Z,54.75
2018-09-19T22:08:37.407Z,55.16
2018-09-19T22:11:06.041Z,55.76
2018-09-19T22:13:34.150Z,55.41
2018-09-19T22:16:02.185Z,54.92
2018-09-19T22:18:30.332Z,55.05
2018-09-19T22:20:58.395Z,56.05
2018-09-19T22:23:26.480Z,55.57
2018-09-19T22:25:54.532Z,55.89
2018-09-19T22:28:22.600Z,55.44
2018-09-19T22:30:51.069Z,56.07
2018-09-19T22:33:19.110Z,55.56
2018-09-19T22:35:47.206Z,56.32
2018-09-19T22:38:21.898Z,56.14
2018-09-19T22:40:50.064Z,55.79
2018-09-19T22:43:18.190Z,55.92
2018-09-19T22:45:46.409Z,55.99
2018-09-19T22:48:14.583Z,55.67
2018-09-19T22:50:42.651Z,56.60
2018-09-19T22:53:10.852Z,55.67
2018-09-19T22:55:38.953Z,56.75
2018-09-19T22:58:07.063Z,56.33
2018-09-19T23:00:35.093Z,56.15
2018-09-19T23:03:03.186Z,57.14
2018-09-19T23:05:31.300Z,57.24
2018-09-19T23:07:59.383Z,56.63
2018-09-19T23:10:27.445Z,56.95
2018-09-19T23:12:55.498Z,56.57
2018-09-19T23:15:23.553Z,57.57
2018-09-19T23:17:51.589Z,57.69
2018-09-19T23:20:19.660Z,57.33
2018-09-19T23:22:47.716Z,57.41
2018-09-19T23:25:15.754Z,57.05
2018-09-19T23:27:43.840Z,57.06
2018-09-19T23:30:11.905Z,56.90
2018-09-19T23:32:39.992Z,57.94
2018-09-19T23:35:08.040Z,57.43
2018-09-19T23:37:36.105Z,58.04
2018-09-19T23:40:05.132Z,58.06
2018-09-19T23:42:33.205Z,58.38
2018-09-19T23:45:01.421Z,58.02
2018-09-19T23:47:29.527Z,58.09
2018-09-19T23:49:57.549Z,57.74
2018-09-19T23:52:25.628Z,58.01
2018-09-19T23:54:53.661Z,59.07
2018-09-19T23:57:21.668Z,58.31
2018-09-19T23:59:49.892Z,58.10
